Terminal Aerodrome Forecast
Issued by NWS Greer, SC

Home | Current Version | Previous Version | Text Only | Print | Product List | Glossary On
Versions: 1 2 3 4 5 6 7 8 9 10 11 12 13 14 15 16 17 18 19
000
FTUS42 KGSP 020841 AAB
TAFGSP
TAF AMD
KGSP 020841Z 0209/0306 23008KT 2SM BR OVC002
      TEMPO 0209/0212 1SM BR OVC001
     FM021400 26004KT P6SM OVC007
     FM021700 35004KT P6SM BKN025
     FM022000 03005KT P6SM BKN045
     FM030100 05005KT 6SM BR OVC016=

USA.gov is the U.S. government's official web portal to all federal, state and local government web resources and services.